Time;durP1;ratioP1;P1;durP2;ratioP2;P2;SDS_P1;SDS_P2;PMS_P1;PMS_P2;Temp;Humidity;BMP_temperature;BMP_pressure;BME280_temperature;BME280_humidity;BME280_pressure;Samples;Min_cycle;Max_cycle;Signal;HPM_P1;HPM_P2
2020/12/29 00:00:49;;;;;;;9.93;7.43;;;3.20;99.90;;;;;;12423604;28;20135;-45
2020/12/29 00:06:57;;;;;;;10.57;7.35;;;3.10;99.90;;;;;;12446384;28;20052;-46
2020/12/29 00:12:59;;;;;;;10.48;6.63;;;2.90;99.90;;;;;;12454998;28;20089;-46
2020/12/29 00:19:01;;;;;;;9.23;6.13;;;2.70;99.90;;;;;;12455454;28;20073;-45
2020/12/29 00:25:04;;;;;;;7.68;5.40;;;2.60;99.90;;;;;;12433715;28;20938;-45
2020/12/29 00:31:05;;;;;;;10.10;5.65;;;2.50;99.90;;;;;;12459906;28;20084;-45
2020/12/29 00:37:06;;;;;;;8.75;5.50;;;2.50;99.90;;;;;;12449725;28;20497;-47
2020/12/29 00:43:07;;;;;;;7.75;5.55;;;2.40;99.90;;;;;;12462027;28;20077;-45
2020/12/29 00:49:09;;;;;;;8.38;6.07;;;2.30;99.90;;;;;;12440577;28;20053;-46
2020/12/29 00:55:10;;;;;;;8.30;5.65;;;2.20;99.90;;;;;;12451566;28;20544;-46
2020/12/29 01:01:12;;;;;;;9.18;6.18;;;2.20;99.90;;;;;;12436298;28;20132;-46
2020/12/29 01:07:13;;;;;;;8.10;6.47;;;2.10;99.90;;;;;;12435271;28;20056;-45
2020/12/29 01:13:16;;;;;;;8.50;6.15;;;2.10;99.90;;;;;;12448973;28;20046;-45
2020/12/29 01:19:17;;;;;;;10.27;7.05;;;2.10;99.90;;;;;;12457118;28;20127;-47
2020/12/29 01:25:20;;;;;;;8.60;6.35;;;2.10;99.90;;;;;;12440290;28;20740;-46
2020/12/29 01:31:29;;;;;;;10.07;7.18;;;2.00;99.90;;;;;;12442031;28;20136;-51
2020/12/29 01:37:30;;;;;;;10.25;7.72;;;2.00;99.90;;;;;;12438301;28;20482;-46
2020/12/29 01:43:32;;;;;;;8.90;6.22;;;1.90;99.90;;;;;;12443256;28;20072;-47
2020/12/29 01:49:33;;;;;;;10.15;7.38;;;1.80;99.90;;;;;;12443091;28;20087;-46
2020/12/29 01:55:35;;;;;;;11.75;8.60;;;1.80;99.90;;;;;;12454179;28;20487;-45
2020/12/29 02:01:38;;;;;;;13.82;7.25;;;1.90;99.90;;;;;;12456079;28;20078;-45
2020/12/29 02:07:40;;;;;;;9.35;6.55;;;1.90;99.90;;;;;;12454016;28;20144;-46
2020/12/29 02:13:42;;;;;;;11.07;6.63;;;1.70;99.90;;;;;;12457384;28;20194;-45
2020/12/29 02:19:43;;;;;;;10.38;7.25;;;1.60;99.90;;;;;;12464236;28;20510;-46
2020/12/29 02:25:45;;;;;;;10.27;6.18;;;1.60;99.90;;;;;;12456585;28;20045;-45
2020/12/29 02:31:46;;;;;;;8.98;5.68;;;1.80;99.90;;;;;;12458224;28;20139;-44
2020/12/29 02:37:47;;;;;;;10.05;5.85;;;1.80;99.90;;;;;;12421514;28;20144;-46
2020/12/29 02:43:49;;;;;;;8.73;5.80;;;1.70;99.90;;;;;;12427913;28;20405;-47
2020/12/29 02:49:50;;;;;;;8.75;5.65;;;1.70;99.90;;;;;;12413624;28;20058;-47
2020/12/29 02:55:51;;;;;;;7.78;5.13;;;1.70;99.90;;;;;;12436187;28;20073;-45
2020/12/29 03:01:53;;;;;;;8.65;5.25;;;1.60;99.90;;;;;;12445385;28;20128;-45
2020/12/29 03:07:54;;;;;;;10.40;6.10;;;1.50;99.90;;;;;;12449542;28;20160;-45
2020/12/29 03:13:59;;;;;;;9.80;6.30;;;1.50;99.90;;;;;;12465389;28;20060;-46
2020/12/29 03:20:01;;;;;;;;;;;1.50;99.90;;;;;;12458838;28;20141;-45
2020/12/29 03:26:03;;;;;;;8.82;6.00;;;1.40;99.90;;;;;;12438659;28;20469;-45
2020/12/29 03:32:04;;;;;;;9.85;6.45;;;1.50;99.90;;;;;;12441511;28;20795;-45
2020/12/29 03:38:06;;;;;;;11.20;6.18;;;1.60;99.90;;;;;;12448579;28;20080;-45
2020/12/29 03:44:07;;;;;;;8.77;6.15;;;1.70;99.90;;;;;;12429359;28;20046;-46
2020/12/29 03:50:09;;;;;;;10.68;6.45;;;1.70;99.90;;;;;;12384482;28;20077;-45
2020/12/29 03:56:10;;;;;;;9.40;6.20;;;1.80;99.90;;;;;;12424141;28;20136;-45
2020/12/29 04:02:12;;;;;;;11.13;6.60;;;1.80;99.90;;;;;;12466029;28;20119;-45
2020/12/29 04:08:13;;;;;;;10.65;5.80;;;1.80;99.90;;;;;;12466979;28;20099;-45
2020/12/29 04:14:15;;;;;;;8.40;5.53;;;1.80;99.90;;;;;;12459487;28;20154;-46
2020/12/29 04:20:16;;;;;;;8.02;5.30;;;1.70;99.90;;;;;;12493586;28;20120;-47
2020/12/29 04:26:19;;;;;;;9.80;5.10;;;1.70;99.90;;;;;;12456860;28;20060;-46
2020/12/29 04:32:20;;;;;;;6.47;4.55;;;1.80;99.90;;;;;;12483414;28;20136;-46
2020/12/29 04:38:22;;;;;;;6.15;4.18;;;1.70;99.90;;;;;;12487302;28;20073;-45
2020/12/29 04:44:23;;;;;;;6.45;4.50;;;1.60;99.90;;;;;;12490329;28;20033;-45
2020/12/29 04:50:30;;;;;;;7.05;4.40;;;1.40;99.90;;;;;;12488354;28;20128;-45
2020/12/29 04:56:32;;;;;;;7.72;4.60;;;1.40;99.90;;;;;;12486759;28;20045;-46
2020/12/29 05:02:33;;;;;;;6.28;4.53;;;1.50;99.90;;;;;;12488547;28;20072;-46
2020/12/29 05:08:35;;;;;;;9.05;5.55;;;1.50;99.90;;;;;;12483297;28;20857;-46
2020/12/29 05:14:37;;;;;;;11.20;6.05;;;1.50;99.90;;;;;;12491006;28;20063;-46
2020/12/29 05:20:39;;;;;;;9.65;6.55;;;1.40;99.90;;;;;;12473319;28;20051;-46
2020/12/29 05:26:44;;;;;;;7.95;5.40;;;1.40;99.90;;;;;;12490021;28;20062;-45
2020/12/29 05:32:45;;;;;;;;;;;1.10;99.90;;;;;;12486138;28;20540;-45
2020/12/29 05:38:47;;;;;;;6.93;5.10;;;1.10;99.90;;;;;;12482641;28;20424;-45
2020/12/29 05:44:52;;;;;;;8.85;5.18;;;1.00;99.90;;;;;;12501238;28;20081;-45
2020/12/29 05:50:53;;;;;;;8.68;5.50;;;1.00;99.90;;;;;;12496201;28;20159;-45
2020/12/29 05:56:55;;;;;;;7.63;5.22;;;1.00;99.90;;;;;;12505860;28;20081;-45
2020/12/29 06:02:58;;;;;;;8.18;5.78;;;1.10;99.90;;;;;;12473392;28;20072;-45
2020/12/29 06:09:25;;;;;;;10.15;6.00;;;1.10;99.90;;;;;;12480280;28;20056;-46
2020/12/29 06:15:29;;;;;;;11.63;6.00;;;1.10;99.90;;;;;;12480620;28;20091;-45
2020/12/29 06:21:31;;;;;;;8.90;6.00;;;1.20;99.90;;;;;;12496075;28;20052;-44
2020/12/29 06:27:41;;;;;;;13.52;7.03;;;1.10;99.90;;;;;;12482833;28;20105;-45
2020/12/29 06:33:44;;;;;;;11.30;6.63;;;1.20;99.90;;;;;;12486384;28;20045;-44
2020/12/29 06:39:49;;;;;;;10.50;6.95;;;1.20;99.90;;;;;;12485634;28;20037;-47
2020/12/29 06:45:50;;;;;;;11.93;7.15;;;1.10;99.90;;;;;;12484158;28;20576;-45
2020/12/29 06:52:23;;;;;;;13.70;7.85;;;1.10;99.90;;;;;;12479873;28;20087;-44
2020/12/29 06:58:34;;;;;;;13.00;8.00;;;1.10;99.90;;;;;;12497238;28;20046;-47
2020/12/29 07:04:36;;;;;;;12.68;8.55;;;1.10;99.90;;;;;;12470016;28;20068;-44
2020/12/29 07:10:42;;;;;;;14.68;9.07;;;1.30;99.90;;;;;;12480851;28;20075;-45
2020/12/29 07:16:51;;;;;;;15.25;9.13;;;1.30;99.90;;;;;;12491458;28;20079;-45
2020/12/29 07:23:06;;;;;;;16.17;9.30;;;1.30;99.90;;;;;;12485782;28;20045;-46
2020/12/29 07:29:08;;;;;;;16.23;9.90;;;1.50;99.90;;;;;;12479556;28;21949;-46
2020/12/29 07:35:12;;;;;;;13.57;8.73;;;1.70;99.90;;;;;;12484037;28;20091;-44
2020/12/29 07:41:18;;;;;;;13.35;8.98;;;1.80;99.90;;;;;;12494044;28;20068;-45
2020/12/29 07:47:19;;;;;;;14.95;8.52;;;1.90;99.90;;;;;;12481216;28;20873;-45
2020/12/29 07:53:24;;;;;;;13.05;8.40;;;1.90;99.90;;;;;;12496071;28;20095;-46
2020/12/29 07:59:25;;;;;;;;;;;1.90;99.90;;;;;;12480387;28;20135;-45
2020/12/29 08:05:31;;;;;;;13.63;8.73;;;1.90;99.90;;;;;;12485807;28;20331;-44
2020/12/29 08:11:33;;;;;;;13.48;8.60;;;1.90;99.90;;;;;;12469596;28;20087;-44
2020/12/29 08:17:35;;;;;;;14.70;8.75;;;2.00;99.90;;;;;;12484280;28;20077;-45
2020/12/29 08:23:40;;;;;;;14.25;8.35;;;2.10;99.90;;;;;;12477061;28;20132;-46
2020/12/29 08:29:42;;;;;;;15.50;9.20;;;2.10;99.90;;;;;;12491365;28;20862;-46
2020/12/29 08:35:46;;;;;;;13.90;9.43;;;2.10;99.90;;;;;;12483118;28;20084;-45
2020/12/29 08:41:56;;;;;;;13.23;8.73;;;2.20;99.90;;;;;;12483801;28;20079;-45
2020/12/29 08:47:57;;;;;;;13.13;8.80;;;2.20;99.90;;;;;;12485056;28;20147;-46
2020/12/29 08:54:10;;;;;;;15.18;9.40;;;2.30;99.90;;;;;;12494288;28;20147;-45
2020/12/29 09:00:12;;;;;;;13.35;8.73;;;2.40;99.90;;;;;;12495776;28;20068;-45
2020/12/29 09:06:17;;;;;;;11.57;7.82;;;2.50;99.90;;;;;;12489323;28;20059;-46
2020/12/29 09:12:20;;;;;;;12.50;8.30;;;2.50;99.90;;;;;;12487140;28;20390;-46
2020/12/29 09:18:21;;;;;;;12.50;7.88;;;2.50;99.90;;;;;;12491922;28;20171;-45
2020/12/29 09:24:23;;;;;;;10.90;7.20;;;2.60;99.90;;;;;;12495908;28;20770;-46
2020/12/29 09:30:27;;;;;;;11.77;7.70;;;2.80;99.90;;;;;;12483210;28;20049;-46
2020/12/29 09:36:29;;;;;;;11.82;8.32;;;2.80;99.90;;;;;;12482095;28;20617;-46
2020/12/29 09:42:31;;;;;;;12.32;8.02;;;3.00;99.90;;;;;;12487973;28;20460;-45
2020/12/29 09:48:32;;;;;;;11.38;8.05;;;3.00;99.90;;;;;;12491148;28;20471;-46
2020/12/29 09:54:34;;;;;;;12.20;6.70;;;2.90;99.90;;;;;;12490544;28;20508;-46
2020/12/29 10:00:35;;;;;;;12.10;7.03;;;3.00;99.90;;;;;;12492144;28;20079;-46
2020/12/29 10:06:37;;;;;;;12.02;6.22;;;3.00;99.90;;;;;;12483250;28;20412;-46
2020/12/29 10:12:39;;;;;;;9.93;6.45;;;3.10;99.90;;;;;;12487604;28;20048;-45
2020/12/29 10:18:40;;;;;;;10.18;6.70;;;3.20;99.90;;;;;;12485609;28;20541;-45
2020/12/29 10:24:41;;;;;;;10.90;6.75;;;3.20;99.90;;;;;;12490485;28;20151;-45
2020/12/29 10:30:43;;;;;;;12.18;6.18;;;3.30;99.90;;;;;;12487562;28;20408;-46
2020/12/29 10:36:45;;;;;;;8.65;5.20;;;3.50;99.90;;;;;;12486666;28;20148;-45
2020/12/29 10:42:47;;;;;;;10.82;5.45;;;3.50;99.90;;;;;;12484427;28;20087;-46
2020/12/29 10:48:48;;;;;;;10.07;5.60;;;3.60;99.90;;;;;;12476484;28;20093;-46
2020/12/29 10:54:49;;;;;;;11.45;5.05;;;3.80;99.90;;;;;;12488299;28;20115;-46
2020/12/29 11:00:51;;;;;;;8.65;5.43;;;3.60;99.90;;;;;;12468468;28;20061;-45
2020/12/29 11:06:52;;;;;;;11.43;5.75;;;3.50;99.90;;;;;;12489815;28;20768;-46
2020/12/29 11:12:53;;;;;;;9.77;5.88;;;3.50;99.90;;;;;;12478001;28;20136;-46
2020/12/29 11:18:55;;;;;;;10.50;5.40;;;3.40;99.90;;;;;;12487599;28;20136;-46
2020/12/29 11:24:56;;;;;;;11.35;6.55;;;3.40;99.90;;;;;;12479641;28;20076;-45
2020/12/29 11:30:57;;;;;;;10.45;5.47;;;3.50;99.90;;;;;;12491056;28;20076;-47
2020/12/29 11:36:59;;;;;;;10.65;5.07;;;3.40;99.90;;;;;;12478144;28;20531;-46
2020/12/29 11:43:00;;;;;;;10.15;5.70;;;3.30;99.90;;;;;;12496494;28;20068;-46
2020/12/29 11:49:01;;;;;;;12.10;5.72;;;3.30;99.90;;;;;;12488043;28;20080;-46
2020/12/29 11:55:03;;;;;;;14.43;6.43;;;3.40;99.90;;;;;;12488488;28;20057;-46
2020/12/29 12:01:05;;;;;;;17.58;7.45;;;3.40;99.90;;;;;;12476028;28;20057;-46
2020/12/29 12:07:10;;;;;;;18.33;8.23;;;3.50;99.90;;;;;;12499410;28;20053;-46
2020/12/29 12:13:12;;;;;;;;;;;3.60;99.90;;;;;;12491804;28;20045;-46
2020/12/29 12:19:27;;;;;;;15.73;9.27;;;3.80;99.90;;;;;;12480300;28;19932;-46
2020/12/29 12:25:28;;;;;;;17.92;9.25;;;3.70;99.90;;;;;;12468903;28;20068;-45
2020/12/29 12:31:30;;;;;;;16.73;8.98;;;3.80;99.90;;;;;;12471357;28;20647;-45
2020/12/29 12:37:31;;;;;;;15.43;8.68;;;3.80;99.90;;;;;;12476945;28;20049;-45
2020/12/29 12:43:33;;;;;;;16.35;8.43;;;3.80;99.90;;;;;;12490923;28;20072;-46
2020/12/29 12:49:34;;;;;;;15.05;8.35;;;3.80;99.90;;;;;;12493238;28;20084;-45
2020/12/29 12:55:35;;;;;;;13.95;7.65;;;3.80;99.90;;;;;;12476783;28;20600;-46
2020/12/29 13:01:38;;;;;;;12.65;7.50;;;3.80;99.90;;;;;;12473709;28;20436;-45
2020/12/29 13:07:39;;;;;;;17.05;7.70;;;3.80;99.90;;;;;;12482858;28;20064;-45
2020/12/29 13:13:40;;;;;;;12.45;7.07;;;3.70;99.90;;;;;;12439513;28;20136;-45
2020/12/29 13:19:41;;;;;;;12.82;8.07;;;3.70;99.90;;;;;;12485616;28;20136;-46
2020/12/29 13:25:43;;;;;;;14.93;8.18;;;3.80;99.90;;;;;;12354409;28;20068;-45
2020/12/29 13:31:44;;;;;;;19.23;9.48;;;3.80;99.90;;;;;;12489335;22;20049;-89
2020/12/29 13:37:46;;;;;;;19.08;10.93;;;3.80;99.90;;;;;;12534169;28;20718;-89
2020/12/29 13:43:48;;;;;;;21.00;12.32;;;3.80;99.90;;;;;;12517877;28;20475;-89
2020/12/29 13:49:49;;;;;;;22.75;12.60;;;3.90;99.90;;;;;;12538869;28;20526;-89
2020/12/29 13:55:50;;;;;;;18.60;10.20;;;4.10;99.90;;;;;;12563122;28;20060;-88
2020/12/29 14:01:52;;;;;;;15.82;10.25;;;3.90;99.90;;;;;;12560868;28;20075;-88
2020/12/29 14:07:53;;;;;;;16.83;10.40;;;3.90;99.90;;;;;;12578311;28;20475;-90
2020/12/29 14:13:54;;;;;;;19.33;11.38;;;3.80;99.90;;;;;;12556230;28;20054;-89
2020/12/29 14:20:00;;;;;;;18.98;12.35;;;3.70;99.90;;;;;;12575448;28;20044;-90
2020/12/29 14:26:02;;;;;;;18.35;12.40;;;3.70;99.90;;;;;;12573438;28;20587;-89
2020/12/29 14:32:19;;;;;;;23.02;13.27;;;3.50;99.90;;;;;;12506567;28;20045;-87
2020/12/29 14:38:20;;;;;;;25.48;16.08;;;3.60;99.90;;;;;;12450694;28;20523;-86
2020/12/29 14:44:22;;;;;;;27.33;15.75;;;3.60;99.90;;;;;;12467645;28;20045;-88
2020/12/29 14:50:24;;;;;;;26.60;15.48;;;3.50;99.90;;;;;;12445392;28;20120;-87
2020/12/29 15:03:53;;;;;;;30.10;16.25;;;3.50;99.90;;;;;;12417107;28;20619;-86
2020/12/29 15:17:19;;;;;;;33.55;19.13;;;3.50;99.90;;;;;;12376515;28;20268;-88
2020/12/29 15:38:47;;;;;;;35.92;20.65;;;3.70;99.90;;;;;;12293271;28;20059;-87
2020/12/29 16:51:13;;;;;;;31.42;19.83;;;3.30;99.90;;;;;;12243636;22;7705673;-83
2020/12/29 16:57:21;;;;;;;31.75;19.63;;;3.30;99.90;;;;;;12403582;28;20076;-83
2020/12/29 17:06:18;;;;;;;40.53;20.92;;;3.30;99.90;;;;;;12639305;22;783588;-82
2020/12/29 17:12:20;;;;;;;39.25;22.20;;;3.20;99.90;;;;;;12365632;28;20061;-83
2020/12/29 17:18:21;;;;;;;37.67;22.88;;;3.10;99.90;;;;;;12357579;28;20081;-82
2020/12/29 17:24:23;;;;;;;36.30;22.23;;;3.20;99.90;;;;;;12348169;28;20077;-83
2020/12/29 17:30:32;;;;;;;37.17;21.63;;;3.20;99.90;;;;;;12334020;28;20042;-83
2020/12/29 17:36:33;;;;;;;33.53;20.38;;;3.30;99.90;;;;;;12337089;28;20054;-83
2020/12/29 17:42:35;;;;;;;32.13;18.92;;;3.40;99.90;;;;;;12361170;28;20421;-81
2020/12/29 17:48:40;;;;;;;33.00;19.05;;;3.40;99.90;;;;;;12347855;28;20372;-82
2020/12/29 17:54:42;;;;;;;34.15;20.52;;;3.50;99.90;;;;;;12356760;28;20122;-83
2020/12/29 18:00:43;;;;;;;31.15;17.80;;;3.50;99.90;;;;;;12348817;28;20067;-82
2020/12/29 18:06:45;;;;;;;28.75;17.17;;;3.60;99.90;;;;;;12359969;28;20544;-82
2020/12/29 18:12:49;;;;;;;26.25;17.52;;;3.60;99.90;;;;;;12330268;28;21091;-84
2020/12/29 18:18:50;;;;;;;34.33;18.15;;;3.50;99.90;;;;;;12308574;28;21081;-83
2020/12/29 18:24:51;;;;;;;30.70;17.83;;;3.30;99.90;;;;;;12313200;28;20069;-82
2020/12/29 18:30:53;;;;;;;27.23;17.92;;;3.30;99.90;;;;;;12351861;28;20081;-82
2020/12/29 18:36:54;;;;;;;27.65;17.35;;;3.30;99.90;;;;;;12354452;28;20641;-83
2020/12/29 18:42:55;;;;;;;26.52;15.85;;;3.40;99.90;;;;;;12313909;28;20219;-81
2020/12/29 18:48:57;;;;;;;23.40;14.13;;;3.50;99.90;;;;;;12361836;28;20050;-83
2020/12/29 18:54:59;;;;;;;26.58;14.15;;;3.40;99.90;;;;;;12322197;28;20051;-82
2020/12/29 19:01:00;;;;;;;24.38;14.02;;;3.40;99.90;;;;;;12332865;28;20684;-85
2020/12/29 19:07:02;;;;;;;25.23;14.30;;;3.40;99.90;;;;;;12321118;28;20159;-82
2020/12/29 19:13:04;;;;;;;21.23;13.35;;;3.40;99.90;;;;;;12357833;28;20070;-84
2020/12/29 19:19:05;;;;;;;20.48;12.77;;;3.50;99.90;;;;;;12311933;28;20450;-83
2020/12/29 19:25:07;;;;;;;21.67;12.20;;;3.40;99.90;;;;;;12308950;28;20285;-83
2020/12/29 19:31:09;;;;;;;20.90;11.70;;;3.50;99.90;;;;;;12326534;28;20675;-84
2020/12/29 19:37:10;;;;;;;23.85;12.32;;;3.40;99.90;;;;;;12306058;28;20149;-82
2020/12/29 19:43:11;;;;;;;21.17;12.48;;;3.40;99.90;;;;;;12305829;28;20561;-82
2020/12/29 19:49:13;;;;;;;19.63;11.93;;;3.40;99.90;;;;;;12328588;28;20049;-83
2020/12/29 19:55:15;;;;;;;22.17;11.80;;;3.40;99.90;;;;;;12316619;28;20121;-83
2020/12/29 20:01:17;;;;;;;21.00;11.75;;;3.50;99.90;;;;;;12320429;28;20053;-83
2020/12/29 20:07:18;;;;;;;20.10;10.15;;;3.50;99.90;;;;;;12302301;28;20074;-82
2020/12/29 20:13:20;;;;;;;18.83;10.63;;;3.60;99.90;;;;;;12314357;28;20509;-82
2020/12/29 20:19:21;;;;;;;17.95;9.55;;;3.60;99.90;;;;;;12325040;28;20145;-83
2020/12/29 20:25:22;;;;;;;16.80;9.25;;;3.60;99.90;;;;;;12320955;28;20490;-82
2020/12/29 20:31:25;;;;;;;18.50;8.48;;;3.60;99.90;;;;;;12315269;28;20046;-81
2020/12/29 20:37:26;;;;;;;13.70;8.48;;;3.60;99.90;;;;;;12298695;28;20485;-84
2020/12/29 20:43:28;;;;;;;13.15;8.45;;;3.60;99.90;;;;;;12316908;28;20042;-81
2020/12/29 20:49:29;;;;;;;17.10;9.10;;;3.60;99.90;;;;;;12326060;28;20057;-82
2020/12/29 20:55:37;;;;;;;19.45;9.52;;;3.60;99.90;;;;;;12302393;28;20053;-83
2020/12/29 21:01:39;;;;;;;12.73;8.00;;;3.60;99.90;;;;;;12312412;28;20600;-83
2020/12/29 21:07:40;;;;;;;15.45;8.40;;;3.60;99.90;;;;;;12305834;28;20074;-82
2020/12/29 21:13:42;;;;;;;14.05;8.48;;;3.70;99.90;;;;;;12343473;28;20054;-82
2020/12/29 21:19:43;;;;;;;16.70;8.68;;;3.60;99.90;;;;;;12324977;28;20513;-83
2020/12/29 21:25:45;;;;;;;13.98;8.13;;;3.60;99.90;;;;;;12310840;28;20098;-82
2020/12/29 21:31:47;;;;;;;15.15;8.30;;;3.60;99.90;;;;;;12311933;28;20114;-82
2020/12/29 21:37:48;;;;;;;15.48;8.70;;;3.60;99.90;;;;;;12300451;28;20050;-82
2020/12/29 21:43:50;;;;;;;17.73;8.73;;;3.60;99.90;;;;;;12303331;28;20657;-82
2020/12/29 21:49:51;;;;;;;14.35;8.30;;;3.50;99.90;;;;;;12298662;28;20042;-82
2020/12/29 21:55:52;;;;;;;13.27;8.13;;;3.50;99.90;;;;;;12306407;28;20667;-82
2020/12/29 22:01:54;;;;;;;14.55;7.22;;;3.50;99.90;;;;;;12319320;28;20114;-81
2020/12/29 22:07:55;;;;;;;11.55;7.00;;;3.50;99.90;;;;;;12313704;28;20145;-82
2020/12/29 22:13:58;;;;;;;14.07;7.38;;;3.40;99.90;;;;;;12309737;28;21554;-81
2020/12/29 22:19:59;;;;;;;12.13;6.78;;;3.40;99.90;;;;;;12310672;28;20132;-82
2020/12/29 22:26:01;;;;;;;14.70;7.50;;;3.40;99.90;;;;;;12308906;28;20046;-81
2020/12/29 22:32:03;;;;;;;15.25;7.10;;;3.40;99.90;;;;;;12335204;28;20485;-81
2020/12/29 22:38:06;;;;;;;19.92;7.10;;;3.50;99.90;;;;;;12291265;28;20185;-82
2020/12/29 22:44:07;;;;;;;12.68;7.53;;;3.40;99.90;;;;;;12331732;28;20497;-80
2020/12/29 22:50:09;;;;;;;13.40;7.47;;;3.40;99.90;;;;;;12314284;28;20086;-82
2020/12/29 22:56:18;;;;;;;16.73;8.18;;;3.30;99.90;;;;;;12307228;28;20518;-83
2020/12/29 23:02:19;;;;;;;17.08;8.02;;;3.30;99.90;;;;;;12310820;28;20054;-82
2020/12/29 23:08:20;;;;;;;14.10;8.75;;;3.30;99.90;;;;;;12323977;28;20065;-82
2020/12/29 23:14:22;;;;;;;13.40;8.90;;;3.30;99.90;;;;;;12337165;28;20082;-82
2020/12/29 23:20:23;;;;;;;16.85;8.75;;;3.30;99.90;;;;;;12303625;28;20076;-82
2020/12/29 23:26:25;;;;;;;14.75;8.20;;;3.30;99.90;;;;;;12310013;28;20481;-82
2020/12/29 23:32:26;;;;;;;14.30;8.02;;;3.30;99.90;;;;;;12297819;28;20090;-83
2020/12/29 23:38:27;;;;;;;12.68;8.07;;;3.30;99.90;;;;;;12318010;28;20104;-82
2020/12/29 23:44:29;;;;;;;12.45;7.95;;;3.30;99.90;;;;;;12332831;28;20111;-81
2020/12/29 23:50:30;;;;;;;16.08;7.88;;;3.30;99.90;;;;;;12319048;28;20069;-81
2020/12/29 23:56:33;;;;;;;14.75;8.80;;;3.30;99.90;;;;;;12322335;28;20060;-81
